createdAt,value
2023-04-19T00:04:23.371Z,17.70
2023-04-19T00:14:25.459Z,17.70
2023-04-19T00:24:26.896Z,17.69
2023-04-19T00:34:28.277Z,17.69
2023-04-19T00:44:29.659Z,17.68
2023-04-19T00:54:31.429Z,17.69
2023-04-19T01:04:33.154Z,17.69
2023-04-19T01:14:34.863Z,17.67
2023-04-19T01:24:36.262Z,17.68
2023-04-19T01:34:37.807Z,17.65
2023-04-19T01:44:39.357Z,17.64
2023-04-19T01:54:40.818Z,17.66
2023-04-19T02:04:42.386Z,17.61
2023-04-19T02:14:43.776Z,17.59
2023-04-19T02:24:45.628Z,17.59
2023-04-19T02:34:47.052Z,17.55
2023-04-19T02:44:48.610Z,17.52
2023-04-19T02:54:50.420Z,17.51
2023-04-19T03:04:52.933Z,17.47
2023-04-19T03:14:54.653Z,17.45
2023-04-19T03:24:56.844Z,17.42
2023-04-19T03:34:58.229Z,17.40
2023-04-19T03:44:59.634Z,17.37
2023-04-19T03:55:01.243Z,17.38
2023-04-19T04:05:02.717Z,17.36
2023-04-19T04:15:05.301Z,17.34
2023-04-19T04:25:07.194Z,17.52
2023-04-19T04:35:10.677Z,17.76
2023-04-19T04:45:12.840Z,18.04
2023-04-19T04:55:14.230Z,18.25
2023-04-19T05:05:15.764Z,18.36
2023-04-19T05:15:17.154Z,18.43
2023-04-19T05:25:18.721Z,18.45
2023-04-19T05:35:20.202Z,18.45
2023-04-19T05:45:22.006Z,18.44
2023-04-19T05:55:23.528Z,18.46
2023-04-19T06:05:25.006Z,18.50
2023-04-19T06:15:26.953Z,18.55
2023-04-19T06:25:28.330Z,18.85
2023-04-19T06:35:29.760Z,19.45
2023-04-19T06:45:32.022Z,19.99
2023-04-19T06:55:33.526Z,20.39
2023-04-19T07:05:34.935Z,20.37
2023-04-19T07:15:36.369Z,20.76
2023-04-19T07:25:38.925Z,21.27
2023-04-19T07:35:40.557Z,21.43
2023-04-19T07:45:42.313Z,21.69
2023-04-19T07:55:44.172Z,22.04
2023-04-19T08:05:45.727Z,22.39
2023-04-19T08:25:51.940Z,23.13
2023-04-19T08:35:53.337Z,23.59
2023-04-19T08:45:54.947Z,24.20
2023-04-19T08:56:12.843Z,25.74
2023-04-19T09:06:19.508Z,27.88
2023-04-19T09:16:24.932Z,30.38
2023-04-19T09:26:29.543Z,30.54
2023-04-19T09:36:32.171Z,27.52
2023-04-19T09:46:37.342Z,26.41
2023-04-19T09:56:38.899Z,24.79
2023-04-19T10:16:47.678Z,22.90
2023-04-19T10:27:08.607Z,22.60
2023-04-19T10:37:10.920Z,22.40
2023-04-19T10:47:14.623Z,22.31
2023-04-19T10:57:16.177Z,22.21
2023-04-19T11:07:23.512Z,22.11
2023-04-19T11:17:30.405Z,21.90
2023-04-19T11:27:33.405Z,21.70
2023-04-19T11:37:36.380Z,21.47
2023-04-19T11:47:48.595Z,21.28
2023-04-19T11:57:50.328Z,21.09
2023-04-19T12:08:11.057Z,20.95
2023-04-19T12:18:12.705Z,20.77
2023-04-19T12:28:15.012Z,20.61
2023-04-19T12:38:16.430Z,20.51
2023-04-19T12:48:18.036Z,20.39
2023-04-19T12:58:21.093Z,20.28
2023-04-19T13:08:30.977Z,20.21
2023-04-19T13:18:38.807Z,20.12
2023-04-19T13:28:41.451Z,20.00
2023-04-19T13:38:42.968Z,19.93
2023-04-19T13:48:44.384Z,19.85
2023-04-19T13:58:46.098Z,19.81
2023-04-19T14:08:49.023Z,19.73
2023-04-19T14:18:52.102Z,19.76
2023-04-19T14:28:53.484Z,19.63
2023-04-19T14:38:54.870Z,19.59
2023-04-19T14:48:57.054Z,19.57
2023-04-19T14:58:58.643Z,19.49
2023-04-19T15:09:00.015Z,19.42
2023-04-19T15:19:02.237Z,19.41
2023-04-19T15:29:03.623Z,19.35
2023-04-19T15:39:05.159Z,19.32
2023-04-19T15:49:06.590Z,19.28
2023-04-19T15:59:08.123Z,19.23
2023-04-19T16:09:09.514Z,19.17
2023-04-19T16:19:10.904Z,19.16
2023-04-19T16:29:12.517Z,19.09
2023-04-19T16:39:14.063Z,19.07
2023-04-19T16:49:15.963Z,18.97
2023-04-19T16:59:17.726Z,18.98
2023-04-19T17:09:19.442Z,18.97
2023-04-19T17:19:20.869Z,18.94
2023-04-19T17:29:22.266Z,18.85
2023-04-19T17:39:27.449Z,18.79
2023-04-19T17:49:28.844Z,18.75
2023-04-19T17:59:30.330Z,18.68
2023-04-19T18:09:31.701Z,18.63
2023-04-19T18:19:33.081Z,18.54
2023-04-19T18:29:34.612Z,18.48
2023-04-19T18:39:35.979Z,18.41
2023-04-19T18:49:37.412Z,18.30
2023-04-19T18:59:40.779Z,18.31
2023-04-19T19:09:54.459Z,18.24
2023-04-19T19:19:57.456Z,18.23
2023-04-19T19:29:59.008Z,18.19
2023-04-19T19:40:04.145Z,18.13
2023-04-19T20:10:17.179Z,18.03
2023-04-19T20:20:18.711Z,17.99
2023-04-19T20:30:20.348Z,17.95
2023-04-19T20:40:23.008Z,17.88
2023-04-19T20:50:24.583Z,17.88
2023-04-19T21:00:25.974Z,17.83
2023-04-19T21:10:27.767Z,17.81
2023-04-19T21:20:29.158Z,17.75
2023-04-19T21:30:31.628Z,17.68
2023-04-19T21:40:33.183Z,17.70
2023-04-19T21:50:34.571Z,17.65
2023-04-19T22:00:36.040Z,17.60
2023-04-19T22:10:37.716Z,17.59
2023-04-19T22:20:39.513Z,17.53
2023-04-19T22:30:40.916Z,17.47
2023-04-19T22:40:42.440Z,17.47
2023-04-19T22:50:44.191Z,17.43
2023-04-19T23:00:45.976Z,17.40
2023-04-19T23:10:47.376Z,17.34
2023-04-19T23:20:48.758Z,17.23
2023-04-19T23:30:50.363Z,17.23
2023-04-19T23:40:51.894Z,17.18
2023-04-19T23:50:53.482Z,17.19
